sensor_id;sensor_type;location;lat;lon;timestamp;pressure;altitude;pressure_sealevel;temperature;humidity
41632;BME280;37452;51.938;4.624;2023-08-24T00:02:05;76452.19;;;-142.75;100.00
41632;BME280;37452;51.938;4.624;2023-08-24T00:04:31;76436.44;;;-142.75;100.00
41632;BME280;37452;51.938;4.624;2023-08-24T00:06:57;76448.25;;;-142.75;100.00
41632;BME280;37452;51.938;4.624;2023-08-24T00:09:22;76438.41;;;-142.75;100.00
41632;BME280;37452;51.938;4.624;2023-08-24T00:11:47;76424.63;;;-142.75;100.00
41632;BME280;37452;51.938;4.624;2023-08-24T00:14:13;76424.63;;;-142.75;100.00
41632;BME280;37452;51.938;4.624;2023-08-24T00:16:38;76416.75;;;-142.75;100.00
41632;BME280;37452;51.938;4.624;2023-08-24T00:19:04;76416.75;;;-142.75;100.00
41632;BME280;37452;51.938;4.624;2023-08-24T00:21:30;76436.44;;;-142.75;100.00
41632;BME280;37452;51.938;4.624;2023-08-24T00:23:55;76436.44;;;-142.75;100.00
41632;BME280;37452;51.938;4.624;2023-08-24T00:26:20;76414.78;;;-142.75;100.00
41632;BME280;37452;51.938;4.624;2023-08-24T00:28:46;76401.00;;;-142.75;100.00
41632;BME280;37452;51.938;4.624;2023-08-24T00:31:11;76401.00;;;-142.75;100.00
41632;BME280;37452;51.938;4.624;2023-08-24T00:33:37;76401.00;;;-142.75;100.00
41632;BME280;37452;51.938;4.624;2023-08-24T00:36:02;76387.22;;;-142.75;100.00
41632;BME280;37452;51.938;4.624;2023-08-24T00:38:29;76381.31;;;-142.75;100.00
41632;BME280;37452;51.938;4.624;2023-08-24T00:40:55;76373.44;;;-142.75;100.00
41632;BME280;37452;51.938;4.624;2023-08-24T00:43:21;76383.28;;;-142.75;100.00
41632;BME280;37452;51.938;4.624;2023-08-24T00:45:50;76383.28;;;-142.75;100.00
41632;BME280;37452;51.938;4.624;2023-08-24T00:48:17;76395.09;;;-142.75;100.00
41632;BME280;37452;51.938;4.624;2023-08-24T00:50:42;76391.16;;;-142.75;100.00
41632;BME280;37452;51.938;4.624;2023-08-24T00:53:08;76381.31;;;-142.75;100.00
41632;BME280;37452;51.938;4.624;2023-08-24T00:55:33;76377.38;;;-142.75;100.00
41632;BME280;37452;51.938;4.624;2023-08-24T00:57:59;76373.44;;;-142.75;100.00
41632;BME280;37452;51.938;4.624;2023-08-24T01:00:25;76373.44;;;-142.75;100.00
41632;BME280;37452;51.938;4.624;2023-08-24T01:02:50;76365.56;;;-142.75;100.00
41632;BME280;37452;51.938;4.624;2023-08-24T01:05:15;76367.53;;;-142.75;100.00
41632;BME280;37452;51.938;4.624;2023-08-24T01:07:41;76369.50;;;-142.75;100.00
41632;BME280;37452;51.938;4.624;2023-08-24T01:10:08;76373.44;;;-142.75;100.00
41632;BME280;37452;51.938;4.624;2023-08-24T01:17:43;76359.66;;;-142.75;100.00
41632;BME280;37452;51.938;4.624;2023-08-24T01:20:10;76365.56;;;-142.75;100.00
41632;BME280;37452;51.938;4.624;2023-08-24T01:25:18;76381.31;;;-142.75;100.00
41632;BME280;37452;51.938;4.624;2023-08-24T01:27:47;76369.50;;;-142.75;100.00
41632;BME280;37452;51.938;4.624;2023-08-24T01:30:14;76373.44;;;-142.75;100.00
41632;BME280;37452;51.938;4.624;2023-08-24T01:32:40;76381.31;;;-142.75;100.00
41632;BME280;37452;51.938;4.624;2023-08-24T01:35:07;76373.44;;;-142.75;100.00
41632;BME280;37452;51.938;4.624;2023-08-24T01:37:37;76361.63;;;-142.75;100.00
41632;BME280;37452;51.938;4.624;2023-08-24T01:40:07;76355.72;;;-142.75;100.00
41632;BME280;37452;51.938;4.624;2023-08-24T01:43:03;76338.03;;;-142.75;100.00
41632;BME280;37452;51.938;4.624;2023-08-24T01:45:31;76369.50;;;-142.75;100.00
41632;BME280;37452;51.938;4.624;2023-08-24T01:47:59;76375.41;;;-142.75;100.00
41632;BME280;37452;51.938;4.624;2023-08-24T01:50:25;76365.56;;;-142.75;100.00
41632;BME280;37452;51.938;4.624;2023-08-24T01:52:51;76349.81;;;-142.75;100.00
41632;BME280;37452;51.938;4.624;2023-08-24T01:55:20;76359.66;;;-142.75;100.00
41632;BME280;37452;51.938;4.624;2023-08-24T01:57:45;76371.47;;;-142.75;100.00
41632;BME280;37452;51.938;4.624;2023-08-24T02:00:11;76359.66;;;-142.75;100.00
41632;BME280;37452;51.938;4.624;2023-08-24T02:02:37;76338.03;;;-142.75;100.00
41632;BME280;37452;51.938;4.624;2023-08-24T02:05:03;76322.28;;;-142.75;100.00
41632;BME280;37452;51.938;4.624;2023-08-24T02:07:29;76326.22;;;-142.75;100.00
41632;BME280;37452;51.938;4.624;2023-08-24T02:09:54;76324.25;;;-142.75;100.00
41632;BME280;37452;51.938;4.624;2023-08-24T02:12:20;76310.47;;;-142.75;100.00
41632;BME280;37452;51.938;4.624;2023-08-24T02:14:45;76304.56;;;-142.75;100.00
41632;BME280;37452;51.938;4.624;2023-08-24T02:17:11;76316.38;;;-142.75;100.00
41632;BME280;37452;51.938;4.624;2023-08-24T02:19:36;76298.66;;;-142.75;100.00
41632;BME280;37452;51.938;4.624;2023-08-24T02:22:01;76282.91;;;-142.75;100.00
41632;BME280;37452;51.938;4.624;2023-08-24T02:24:27;76257.31;;;-142.75;100.00
41632;BME280;37452;51.938;4.624;2023-08-24T02:26:52;76251.41;;;-142.75;100.00
41632;BME280;37452;51.938;4.624;2023-08-24T02:29:17;76243.53;;;-142.75;100.00
41632;BME280;37452;51.938;4.624;2023-08-24T02:31:43;76243.53;;;-142.75;100.00
41632;BME280;37452;51.938;4.624;2023-08-24T02:34:08;76239.59;;;-142.75;100.00
41632;BME280;37452;51.938;4.624;2023-08-24T02:36:33;76247.47;;;-142.75;100.00
41632;BME280;37452;51.938;4.624;2023-08-24T02:38:59;76231.72;;;-142.75;100.00
41632;BME280;37452;51.938;4.624;2023-08-24T02:41:25;76239.59;;;-142.75;100.00
41632;BME280;37452;51.938;4.624;2023-08-24T02:43:51;76227.78;;;-142.75;100.00
41632;BME280;37452;51.938;4.624;2023-08-24T02:46:16;76219.91;;;-142.75;100.00
41632;BME280;37452;51.938;4.624;2023-08-24T02:48:43;76204.16;;;-142.75;100.00
41632;BME280;37452;51.938;4.624;2023-08-24T02:51:09;76219.91;;;-142.75;100.00
41632;BME280;37452;51.938;4.624;2023-08-24T02:53:35;76212.03;;;-142.75;100.00
41632;BME280;37452;51.938;4.624;2023-08-24T02:56:00;76192.38;;;-142.75;100.00
41632;BME280;37452;51.938;4.624;2023-08-24T02:58:26;76188.44;;;-142.75;100.00
41632;BME280;37452;51.938;4.624;2023-08-24T03:00:52;76192.38;;;-142.75;100.00
41632;BME280;37452;51.938;4.624;2023-08-24T03:03:17;76182.53;;;-142.75;100.00
41632;BME280;37452;51.938;4.624;2023-08-24T03:05:58;76176.63;;;-142.75;100.00
41632;BME280;37452;51.938;4.624;2023-08-24T03:08:24;76176.63;;;-142.75;100.00
41632;BME280;37452;51.938;4.624;2023-08-24T03:10:50;76170.72;;;-142.75;100.00
41632;BME280;37452;51.938;4.624;2023-08-24T03:13:15;76162.84;;;-142.75;100.00
41632;BME280;37452;51.938;4.624;2023-08-24T03:15:41;76170.72;;;-142.75;100.00
41632;BME280;37452;51.938;4.624;2023-08-24T03:18:06;76164.81;;;-142.75;100.00
41632;BME280;37452;51.938;4.624;2023-08-24T03:20:31;76158.91;;;-142.75;100.00
41632;BME280;37452;51.938;4.624;2023-08-24T03:22:57;76164.81;;;-142.75;100.00
41632;BME280;37452;51.938;4.624;2023-08-24T03:25:23;76162.84;;;-142.75;100.00
41632;BME280;37452;51.938;4.624;2023-08-24T03:27:48;76164.81;;;-142.75;100.00
41632;BME280;37452;51.938;4.624;2023-08-24T03:30:14;76151.03;;;-142.75;100.00
41632;BME280;37452;51.938;4.624;2023-08-24T03:32:42;76156.94;;;-142.75;100.00
41632;BME280;37452;51.938;4.624;2023-08-24T03:35:08;76196.31;;;-142.75;100.00
41632;BME280;37452;51.938;4.624;2023-08-24T03:37:33;76192.38;;;-142.75;100.00
41632;BME280;37452;51.938;4.624;2023-08-24T03:39:59;76188.44;;;-142.75;100.00
41632;BME280;37452;51.938;4.624;2023-08-24T03:42:24;76200.25;;;-142.75;100.00
41632;BME280;37452;51.938;4.624;2023-08-24T03:44:49;76194.34;;;-142.75;100.00
41632;BME280;37452;51.938;4.624;2023-08-24T03:47:15;76182.53;;;-142.75;100.00
41632;BME280;37452;51.938;4.624;2023-08-24T03:49:43;76180.56;;;-142.75;100.00
41632;BME280;37452;51.938;4.624;2023-08-24T03:52:09;76180.56;;;-142.75;100.00
41632;BME280;37452;51.938;4.624;2023-08-24T03:54:34;76186.47;;;-142.75;100.00
41632;BME280;37452;51.938;4.624;2023-08-24T03:57:00;76192.38;;;-142.75;100.00
41632;BME280;37452;51.938;4.624;2023-08-24T03:59:26;76200.25;;;-142.75;100.00
41632;BME280;37452;51.938;4.624;2023-08-24T04:01:51;76208.09;;;-142.75;100.00
41632;BME280;37452;51.938;4.624;2023-08-24T04:04:16;76192.38;;;-142.75;100.00
41632;BME280;37452;51.938;4.624;2023-08-24T04:06:42;76200.25;;;-142.75;100.00
41632;BME280;37452;51.938;4.624;2023-08-24T04:09:07;76200.25;;;-142.75;100.00
41632;BME280;37452;51.938;4.624;2023-08-24T04:11:32;76204.16;;;-142.75;100.00
41632;BME280;37452;51.938;4.624;2023-08-24T04:13:58;76210.06;;;-142.75;100.00
41632;BME280;37452;51.938;4.624;2023-08-24T04:16:23;76217.94;;;-142.75;100.00
41632;BME280;37452;51.938;4.624;2023-08-24T04:18:48;76221.88;;;-142.75;100.00
41632;BME280;37452;51.938;4.624;2023-08-24T04:21:14;76235.66;;;-142.75;100.00
41632;BME280;37452;51.938;4.624;2023-08-24T04:23:39;76251.41;;;-142.75;100.00
41632;BME280;37452;51.938;4.624;2023-08-24T04:26:12;76263.22;;;-142.75;100.00
41632;BME280;37452;51.938;4.624;2023-08-24T04:28:38;76263.22;;;-142.75;100.00
41632;BME280;37452;51.938;4.624;2023-08-24T04:31:03;76269.13;;;-142.75;100.00
41632;BME280;37452;51.938;4.624;2023-08-24T04:33:29;76269.13;;;-142.75;100.00
41632;BME280;37452;51.938;4.624;2023-08-24T04:35:54;76273.06;;;-142.75;100.00
41632;BME280;37452;51.938;4.624;2023-08-24T04:38:20;76265.19;;;-142.75;100.00
41632;BME280;37452;51.938;4.624;2023-08-24T04:43:10;76249.44;;;-142.75;100.00
41632;BME280;37452;51.938;4.624;2023-08-24T04:45:36;76241.56;;;-142.75;100.00
41632;BME280;37452;51.938;4.624;2023-08-24T04:48:01;76233.69;;;-142.75;100.00
41632;BME280;37452;51.938;4.624;2023-08-24T04:50:28;76227.78;;;-142.75;100.00
41632;BME280;37452;51.938;4.624;2023-08-24T04:52:53;76219.91;;;-142.75;100.00
41632;BME280;37452;51.938;4.624;2023-08-24T04:55:18;76208.09;;;-142.75;100.00
41632;BME280;37452;51.938;4.624;2023-08-24T04:57:44;76212.03;;;-142.75;100.00
41632;BME280;37452;51.938;4.624;2023-08-24T05:00:09;76206.13;;;-142.75;100.00
41632;BME280;37452;51.938;4.624;2023-08-24T05:02:40;76198.28;;;-142.75;100.00
41632;BME280;37452;51.938;4.624;2023-08-24T05:05:06;76190.41;;;-142.75;100.00
41632;BME280;37452;51.938;4.624;2023-08-24T05:07:32;76194.34;;;-142.75;100.00
41632;BME280;37452;51.938;4.624;2023-08-24T05:09:57;76194.34;;;-142.75;100.00
41632;BME280;37452;51.938;4.624;2023-08-24T05:12:23;76196.31;;;-142.75;100.00
41632;BME280;37452;51.938;4.624;2023-08-24T05:14:48;76188.44;;;-142.75;100.00
41632;BME280;37452;51.938;4.624;2023-08-24T05:17:13;76172.69;;;-142.75;100.00
41632;BME280;37452;51.938;4.624;2023-08-24T05:19:39;76184.50;;;-142.75;100.00
41632;BME280;37452;51.938;4.624;2023-08-24T05:22:04;76164.81;;;-142.75;100.00
41632;BME280;37452;51.938;4.624;2023-08-24T05:24:30;76160.88;;;-142.75;100.00
41632;BME280;37452;51.938;4.624;2023-08-24T05:26:55;76154.97;;;-142.75;100.00
41632;BME280;37452;51.938;4.624;2023-08-24T05:29:20;76147.09;;;-142.75;100.00
41632;BME280;37452;51.938;4.624;2023-08-24T05:31:46;76131.34;;;-142.75;100.00
41632;BME280;37452;51.938;4.624;2023-08-24T05:34:11;76131.34;;;-142.75;100.00
41632;BME280;37452;51.938;4.624;2023-08-24T05:36:36;76121.50;;;-142.75;100.00
41632;BME280;37452;51.938;4.624;2023-08-24T05:39:02;76113.63;;;-142.75;100.00
41632;BME280;37452;51.938;4.624;2023-08-24T05:41:28;76093.94;;;-142.75;100.00
41632;BME280;37452;51.938;4.624;2023-08-24T05:43:53;76082.13;;;-142.75;100.00
41632;BME280;37452;51.938;4.624;2023-08-24T05:46:18;76078.19;;;-142.75;100.00
41632;BME280;37452;51.938;4.624;2023-08-24T05:48:44;76070.34;;;-142.75;100.00
41632;BME280;37452;51.938;4.624;2023-08-24T05:51:09;76062.47;;;-142.75;100.00
41632;BME280;37452;51.938;4.624;2023-08-24T05:53:37;76048.69;;;-142.75;100.00
41632;BME280;37452;51.938;4.624;2023-08-24T05:56:03;76052.63;;;-142.75;100.00
41632;BME280;37452;51.938;4.624;2023-08-24T05:58:29;76040.81;;;-142.75;100.00
41632;BME280;37452;51.938;4.624;2023-08-24T06:00:58;76030.97;;;-142.75;100.00
41632;BME280;37452;51.938;4.624;2023-08-24T06:03:24;76011.28;;;-142.75;100.00
41632;BME280;37452;51.938;4.624;2023-08-24T06:05:50;75995.53;;;-142.75;100.00
41632;BME280;37452;51.938;4.624;2023-08-24T06:08:15;75989.63;;;-142.75;100.00
41632;BME280;37452;51.938;4.624;2023-08-24T06:10:41;75967.97;;;-142.75;100.00
41632;BME280;37452;51.938;4.624;2023-08-24T06:13:06;75966.00;;;-142.75;100.00
41632;BME280;37452;51.938;4.624;2023-08-24T06:15:32;75956.19;;;-142.75;100.00
41632;BME280;37452;51.938;4.624;2023-08-24T06:17:57;75944.38;;;-142.75;100.00
41632;BME280;37452;51.938;4.624;2023-08-24T06:20:24;75938.47;;;-142.75;100.00
41632;BME280;37452;51.938;4.624;2023-08-24T06:22:50;75916.81;;;-142.75;100.00
41632;BME280;37452;51.938;4.624;2023-08-24T06:25:15;75916.81;;;-142.75;100.00
41632;BME280;37452;51.938;4.624;2023-08-24T06:27:40;75906.97;;;-142.75;100.00
41632;BME280;37452;51.938;4.624;2023-08-24T06:30:06;75897.13;;;-142.75;100.00
41632;BME280;37452;51.938;4.624;2023-08-24T06:32:32;75899.09;;;-142.75;100.00
41632;BME280;37452;51.938;4.624;2023-08-24T06:34:57;75889.25;;;-142.75;100.00
41632;BME280;37452;51.938;4.624;2023-08-24T06:37:23;75883.34;;;-142.75;100.00
41632;BME280;37452;51.938;4.624;2023-08-24T06:39:48;75881.38;;;-142.75;100.00
41632;BME280;37452;51.938;4.624;2023-08-24T06:42:13;75887.28;;;-142.75;100.00
41632;BME280;37452;51.938;4.624;2023-08-24T06:44:39;75899.09;;;-142.75;100.00
41632;BME280;37452;51.938;4.624;2023-08-24T06:47:04;75885.31;;;-142.75;100.00
41632;BME280;37452;51.938;4.624;2023-08-24T06:49:29;75853.84;;;-142.75;100.00
41632;BME280;37452;51.938;4.624;2023-08-24T06:51:55;75845.97;;;-142.75;100.00
41632;BME280;37452;51.938;4.624;2023-08-24T06:54:20;75838.09;;;-142.75;100.00
41632;BME280;37452;51.938;4.624;2023-08-24T06:56:45;75822.34;;;-142.75;100.00
41632;BME280;37452;51.938;4.624;2023-08-24T06:59:11;75810.53;;;-142.75;100.00
41632;BME280;37452;51.938;4.624;2023-08-24T07:01:39;75804.63;;;-142.75;100.00
41632;BME280;37452;51.938;4.624;2023-08-24T07:04:06;75798.72;;;-142.75;100.00
41632;BME280;37452;51.938;4.624;2023-08-24T07:06:33;75786.91;;;-142.75;100.00
41632;BME280;37452;51.938;4.624;2023-08-24T07:08:59;75782.97;;;-142.75;100.00
41632;BME280;37452;51.938;4.624;2023-08-24T07:11:25;75784.94;;;-142.75;100.00
41632;BME280;37452;51.938;4.624;2023-08-24T07:13:51;75775.09;;;-142.75;100.00
41632;BME280;37452;51.938;4.624;2023-08-24T07:16:18;75771.16;;;-142.75;100.00
41632;BME280;37452;51.938;4.624;2023-08-24T07:18:44;75747.56;;;-142.75;100.00
41632;BME280;37452;51.938;4.624;2023-08-24T07:21:09;75747.56;;;-142.75;100.00
41632;BME280;37452;51.938;4.624;2023-08-24T07:23:34;75757.41;;;-142.75;100.00
41632;BME280;37452;51.938;4.624;2023-08-24T07:26:00;75745.59;;;-142.75;100.00
41632;BME280;37452;51.938;4.624;2023-08-24T07:28:25;75739.69;;;-142.75;100.00
41632;BME280;37452;51.938;4.624;2023-08-24T07:30:50;75720.00;;;-142.75;100.00
41632;BME280;37452;51.938;4.624;2023-08-24T07:33:18;75708.19;;;-142.75;100.00
41632;BME280;37452;51.938;4.624;2023-08-24T07:35:43;75720.00;;;-142.75;100.00
41632;BME280;37452;51.938;4.624;2023-08-24T07:38:09;75700.31;;;-142.75;100.00
41632;BME280;37452;51.938;4.624;2023-08-24T07:40:34;75690.47;;;-142.75;100.00
41632;BME280;37452;51.938;4.624;2023-08-24T07:42:59;75690.47;;;-142.75;100.00
41632;BME280;37452;51.938;4.624;2023-08-24T07:45:25;75684.56;;;-142.75;100.00
41632;BME280;37452;51.938;4.624;2023-08-24T07:47:51;75692.44;;;-142.75;100.00
41632;BME280;37452;51.938;4.624;2023-08-24T07:50:17;75686.53;;;-142.75;100.00
41632;BME280;37452;51.938;4.624;2023-08-24T07:52:42;75694.41;;;-142.75;100.00
41632;BME280;37452;51.938;4.624;2023-08-24T07:55:08;75706.22;;;-142.75;100.00
41632;BME280;37452;51.938;4.624;2023-08-24T07:57:34;75690.47;;;-142.75;100.00
41632;BME280;37452;51.938;4.624;2023-08-24T07:59:59;75716.06;;;-142.75;100.00
41632;BME280;37452;51.938;4.624;2023-08-24T08:02:25;75743.63;;;-142.75;100.00
41632;BME280;37452;51.938;4.624;2023-08-24T08:04:50;75723.94;;;-142.75;100.00
41632;BME280;37452;51.938;4.624;2023-08-24T08:07:16;75720.00;;;-142.75;100.00
41632;BME280;37452;51.938;4.624;2023-08-24T08:09:42;75716.06;;;-142.75;100.00
41632;BME280;37452;51.938;4.624;2023-08-24T08:12:07;75698.34;;;-142.75;100.00
41632;BME280;37452;51.938;4.624;2023-08-24T08:14:33;75720.00;;;-142.75;100.00
41632;BME280;37452;51.938;4.624;2023-08-24T08:16:58;75737.72;;;-142.75;100.00
41632;BME280;37452;51.938;4.624;2023-08-24T08:19:23;75735.75;;;-142.75;100.00
41632;BME280;37452;51.938;4.624;2023-08-24T08:21:51;75731.81;;;-142.75;100.00
41632;BME280;37452;51.938;4.624;2023-08-24T08:24:17;75723.94;;;-142.75;100.00
41632;BME280;37452;51.938;4.624;2023-08-24T08:26:42;75731.81;;;-142.75;100.00
41632;BME280;37452;51.938;4.624;2023-08-24T08:29:08;75700.31;;;-142.75;100.00
41632;BME280;37452;51.938;4.624;2023-08-24T08:31:33;75696.38;;;-142.75;100.00
41632;BME280;37452;51.938;4.624;2023-08-24T08:33:58;75686.53;;;-142.75;100.00
41632;BME280;37452;51.938;4.624;2023-08-24T08:36:24;75690.47;;;-142.75;100.00
41632;BME280;37452;51.938;4.624;2023-08-24T08:38:49;75670.81;;;-142.75;100.00
41632;BME280;37452;51.938;4.624;2023-08-24T08:41:17;75657.03;;;-142.75;100.00
41632;BME280;37452;51.938;4.624;2023-08-24T08:43:47;75633.41;;;-142.75;100.00
41632;BME280;37452;51.938;4.624;2023-08-24T08:46:12;75621.59;;;-142.75;100.00
41632;BME280;37452;51.938;4.624;2023-08-24T08:48:41;75617.66;;;-142.75;100.00
41632;BME280;37452;51.938;4.624;2023-08-24T08:51:06;75617.66;;;-142.75;100.00
41632;BME280;37452;51.938;4.624;2023-08-24T08:53:32;75605.84;;;-142.75;100.00
41632;BME280;37452;51.938;4.624;2023-08-24T08:55:57;75611.75;;;-142.75;100.00
41632;BME280;37452;51.938;4.624;2023-08-24T08:58:28;75619.63;;;-142.75;100.00
41632;BME280;37452;51.938;4.624;2023-08-24T09:00:55;75601.91;;;-142.75;100.00
41632;BME280;37452;51.938;4.624;2023-08-24T09:03:20;75627.50;;;-142.75;100.00
41632;BME280;37452;51.938;4.624;2023-08-24T09:05:46;75627.50;;;-142.75;100.00
41632;BME280;37452;51.938;4.624;2023-08-24T09:08:16;75605.84;;;-142.75;100.00
41632;BME280;37452;51.938;4.624;2023-08-24T09:10:41;75599.94;;;-142.75;100.00
41632;BME280;37452;51.938;4.624;2023-08-24T09:13:07;75584.22;;;-142.75;100.00
41632;BME280;37452;51.938;4.624;2023-08-24T09:15:35;75562.56;;;-142.75;100.00
41632;BME280;37452;51.938;4.624;2023-08-24T09:18:01;75574.38;;;-142.75;100.00
41632;BME280;37452;51.938;4.624;2023-08-24T09:20:28;75570.44;;;-142.75;100.00
41632;BME280;37452;51.938;4.624;2023-08-24T09:22:57;75554.69;;;-142.75;100.00
41632;BME280;37452;51.938;4.624;2023-08-24T09:25:25;75550.75;;;-142.75;100.00
41632;BME280;37452;51.938;4.624;2023-08-24T09:28:02;75538.94;;;-142.75;100.00
41632;BME280;37452;51.938;4.624;2023-08-24T09:30:32;75558.63;;;-142.75;100.00
41632;BME280;37452;51.938;4.624;2023-08-24T09:33:03;75550.75;;;-142.75;100.00
41632;BME280;37452;51.938;4.624;2023-08-24T09:35:33;75558.63;;;-142.75;100.00
41632;BME280;37452;51.938;4.624;2023-08-24T09:38:00;75546.81;;;-142.75;100.00
41632;BME280;37452;51.938;4.624;2023-08-24T09:40:25;75531.06;;;-142.75;100.00
41632;BME280;37452;51.938;4.624;2023-08-24T09:42:51;75519.25;;;-142.75;100.00
41632;BME280;37452;51.938;4.624;2023-08-24T09:45:17;75501.56;;;-142.75;100.00
41632;BME280;37452;51.938;4.624;2023-08-24T09:47:51;75519.25;;;-142.75;100.00
41632;BME280;37452;51.938;4.624;2023-08-24T09:50:17;75536.97;;;-142.75;100.00
41632;BME280;37452;51.938;4.624;2023-08-24T09:52:44;75542.88;;;-142.75;100.00
41632;BME280;37452;51.938;4.624;2023-08-24T09:55:11;75562.56;;;-142.75;100.00
41632;BME280;37452;51.938;4.624;2023-08-24T09:57:39;75582.25;;;-142.75;100.00
41632;BME280;37452;51.938;4.624;2023-08-24T10:00:08;75597.97;;;-142.75;100.00
41632;BME280;37452;51.938;4.624;2023-08-24T10:02:50;75596.00;;;-142.75;100.00
41632;BME280;37452;51.938;4.624;2023-08-24T10:05:21;75609.78;;;-142.75;100.00
41632;BME280;37452;51.938;4.624;2023-08-24T10:07:52;75609.78;;;-142.75;100.00
41632;BME280;37452;51.938;4.624;2023-08-24T10:10:20;75611.75;;;-142.75;100.00
41632;BME280;37452;51.938;4.624;2023-08-24T10:12:50;75601.91;;;-142.75;100.00
41632;BME280;37452;51.938;4.624;2023-08-24T10:15:17;75597.97;;;-142.75;100.00
41632;BME280;37452;51.938;4.624;2023-08-24T10:17:44;75590.13;;;-142.75;100.00
41632;BME280;37452;51.938;4.624;2023-08-24T10:20:10;75572.41;;;-142.75;100.00
41632;BME280;37452;51.938;4.624;2023-08-24T10:22:37;75558.63;;;-142.75;100.00
41632;BME280;37452;51.938;4.624;2023-08-24T10:25:06;75554.69;;;-142.75;100.00
41632;BME280;37452;51.938;4.624;2023-08-24T10:27:32;75535.00;;;-142.75;100.00
41632;BME280;37452;51.938;4.624;2023-08-24T10:29:57;75513.38;;;-142.75;100.00
41632;BME280;37452;51.938;4.624;2023-08-24T10:32:25;75495.66;;;-142.75;100.00
41632;BME280;37452;51.938;4.624;2023-08-24T10:34:50;75495.66;;;-142.75;100.00
41632;BME280;37452;51.938;4.624;2023-08-24T10:37:16;75507.47;;;-142.75;100.00
41632;BME280;37452;51.938;4.624;2023-08-24T10:39:46;75505.50;;;-142.75;100.00
41632;BME280;37452;51.938;4.624;2023-08-24T10:42:12;75479.91;;;-142.75;100.00
41632;BME280;37452;51.938;4.624;2023-08-24T10:44:39;75460.22;;;-142.75;100.00
41632;BME280;37452;51.938;4.624;2023-08-24T10:47:19;75440.53;;;-142.75;100.00
41632;BME280;37452;51.938;4.624;2023-08-24T10:49:57;75432.69;;;-142.75;100.00
41632;BME280;37452;51.938;4.624;2023-08-24T10:52:24;75426.78;;;-142.75;100.00
41632;BME280;37452;51.938;4.624;2023-08-24T10:54:53;75430.72;;;-142.75;100.00
41632;BME280;37452;51.938;4.624;2023-08-24T10:57:23;75414.97;;;-142.75;100.00
41632;BME280;37452;51.938;4.624;2023-08-24T11:02:47;75424.81;;;-142.75;100.00
41632;BME280;37452;51.938;4.624;2023-08-24T11:05:29;75405.13;;;-142.75;100.00
41632;BME280;37452;51.938;4.624;2023-08-24T11:08:00;75405.13;;;-142.75;100.00
41632;BME280;37452;51.938;4.624;2023-08-24T11:15:54;75405.13;;;-142.75;100.00
41632;BME280;37452;51.938;4.624;2023-08-24T11:21:04;75369.69;;;-142.75;100.00
41632;BME280;37452;51.938;4.624;2023-08-24T11:23:30;75348.06;;;-142.75;100.00
41632;BME280;37452;51.938;4.624;2023-08-24T11:25:57;75334.28;;;-142.75;100.00
41632;BME280;37452;51.938;4.624;2023-08-24T11:28:25;75314.59;;;-142.75;100.00
41632;BME280;37452;51.938;4.624;2023-08-24T11:30:52;75285.09;;;-142.75;100.00
41632;BME280;37452;51.938;4.624;2023-08-24T11:33:27;75269.34;;;-142.75;100.00
41632;BME280;37452;51.938;4.624;2023-08-24T11:35:55;75298.84;;;-142.75;100.00
41632;BME280;37452;51.938;4.624;2023-08-24T11:38:20;75298.84;;;-142.75;100.00
41632;BME280;37452;51.938;4.624;2023-08-24T11:40:45;75275.25;;;-142.75;100.00
41632;BME280;37452;51.938;4.624;2023-08-24T11:43:11;75291.00;;;-142.75;100.00
41632;BME280;37452;51.938;4.624;2023-08-24T11:45:37;75298.84;;;-142.75;100.00
41632;BME280;37452;51.938;4.624;2023-08-24T11:48:04;75340.19;;;-142.75;100.00
41632;BME280;37452;51.938;4.624;2023-08-24T11:50:30;75332.31;;;-142.75;100.00
41632;BME280;37452;51.938;4.624;2023-08-24T11:52:55;75306.72;;;-142.75;100.00
41632;BME280;37452;51.938;4.624;2023-08-24T11:55:22;75289.03;;;-142.75;100.00
41632;BME280;37452;51.938;4.624;2023-08-24T11:57:48;75283.13;;;-142.75;100.00
41632;BME280;37452;51.938;4.624;2023-08-24T12:00:14;75263.44;;;-142.75;100.00
41632;BME280;37452;51.938;4.624;2023-08-24T12:02:41;75249.66;;;-142.75;100.00
41632;BME280;37452;51.938;4.624;2023-08-24T12:05:07;75247.69;;;-142.75;100.00
41632;BME280;37452;51.938;4.624;2023-08-24T12:07:33;75253.59;;;-142.75;100.00
41632;BME280;37452;51.938;4.624;2023-08-24T12:10:02;75231.94;;;-142.75;100.00
41632;BME280;37452;51.938;4.624;2023-08-24T12:12:27;75220.16;;;-142.75;100.00
41632;BME280;37452;51.938;4.624;2023-08-24T12:14:55;75184.72;;;-142.75;100.00
41632;BME280;37452;51.938;4.624;2023-08-24T12:17:20;75139.47;;;-142.75;100.00
41632;BME280;37452;51.938;4.624;2023-08-24T12:19:57;75131.59;;;-142.75;100.00
41632;BME280;37452;51.938;4.624;2023-08-24T12:22:22;75165.03;;;-142.75;100.00
41632;BME280;37452;51.938;4.624;2023-08-24T12:24:48;75129.63;;;-142.75;100.00
41632;BME280;37452;51.938;4.624;2023-08-24T12:27:22;75090.28;;;-142.75;100.00
41632;BME280;37452;51.938;4.624;2023-08-24T12:29:49;75092.25;;;-142.75;100.00
41632;BME280;37452;51.938;4.624;2023-08-24T12:32:15;75046.97;;;-142.75;100.00
41632;BME280;37452;51.938;4.624;2023-08-24T12:34:42;75046.97;;;-142.75;100.00
41632;BME280;37452;51.938;4.624;2023-08-24T12:37:08;75082.41;;;-142.75;100.00
41632;BME280;37452;51.938;4.624;2023-08-24T12:39:35;75086.34;;;-142.75;100.00
41632;BME280;37452;51.938;4.624;2023-08-24T12:42:02;75098.16;;;-142.75;100.00
41632;BME280;37452;51.938;4.624;2023-08-24T12:44:27;75117.81;;;-142.75;100.00
41632;BME280;37452;51.938;4.624;2023-08-24T12:46:53;75123.72;;;-142.75;100.00
41632;BME280;37452;51.938;4.624;2023-08-24T12:49:18;75115.84;;;-142.75;100.00